Pagina principală
METAR-TAF:

METAR-TAF

Aeroporturi :

Pincher Creek, Alberta, Canada

Latitudine: 49-31N, longitudine: 113-59W, elevație: 1190 m

Observații meteo curente

Raportul a fost făcut în urmă cu 28 de minute, la 20:00 UTC
Vânt 11 kt de la Est/Sud-est
Temperatură 17°C
Umiditate 63%
Presiune 1017 hPa
Vizibilitate: 14.5 km
Nori fragmentați la o înălțime de 3500 picior
Nori fragmentați la o înălțime de 18000 picior
Nori fragmentați la o înălțime de 20000 picior

METAR: CZPC 212000Z AUTO 12011KT 9SM BKN035 BKN180 BKN200 17/10 A3004 RMK LTNG DIST ALQDS SLP176 DENSITY ALT 5000FT

Ora: 14:28 (20:28 UTC)


TAF: lipsă

Observații și prognoze meteo pentru peste 4.000 de aeroporturi (rapoarte METAR și TAF).

Stațiile disponibile sunt reprezentate pe hartă prin puncte galbene și roșii.

Țineți indicatorul mouse-ului pe punctul dorit pentru a vedea denumirea stației.

Apoi, faceți clic pentru a vedea observațiile și prognozele meteorologice.

Pentru a schimba harta: Pentru mărire, faceți clic pe butoanele verzi cu cruce neagră; pentru micșorare, pe butonul verde cu o liniuță; pentru hărți învecinate, pe săgețile verzi.


METAR-TAF: